Time;durP1;ratioP1;P1;durP2;ratioP2;P2;SDS_P1;SDS_P2;PMS_P1;PMS_P2;Temp;Humidity;BMP_temperature;BMP_pressure;BME280_temperature;BME280_humidity;BME280_pressure;Samples;Min_cycle;Max_cycle;Signal;HPM_P1;HPM_P2
2021/08/06 00:02:09;;;;;;;1.80;1.03;;;;;;;16.34;98.55;155559.06;5034584;28;20543;-74
2021/08/06 00:04:45;;;;;;;1.70;1.20;;;;;;;16.27;99.21;155542.16;5045023;28;20427;-74
2021/08/06 00:07:22;;;;;;;1.50;1.20;;;;;;;16.32;98.91;155553.84;5066858;28;20829;-75
2021/08/06 00:09:58;;;;;;;2.00;1.23;;;;;;;16.24;99.15;155534.34;5050154;28;20877;-74
2021/08/06 00:12:33;;;;;;;1.67;1.33;;;;;;;16.29;99.88;155547.34;5024048;28;20449;-75
2021/08/06 00:15:11;;;;;;;1.57;1.43;;;;;;;16.24;98.03;155534.34;5064061;28;20447;-74
2021/08/06 00:17:46;;;;;;;1.63;1.47;;;;;;;16.19;98.72;155520.03;5044474;28;20807;-74
2021/08/06 00:20:21;;;;;;;1.30;1.20;;;;;;;16.18;98.94;155518.75;5042299;28;20450;-75
2021/08/06 00:22:57;;;;;;;3.50;1.30;;;;;;;16.11;99.20;155500.56;5051400;28;20854;-75
2021/08/06 00:25:33;;;;;;;1.60;1.27;;;;;;;16.15;100.00;155509.66;5063255;28;20451;-75
2021/08/06 00:28:10;;;;;;;1.40;1.30;;;;;;;16.09;99.02;155495.38;5040769;28;20455;-75
2021/08/06 00:30:46;;;;;;;1.20;1.10;;;;;;;16.08;100.00;155491.44;5042571;28;20800;-75
2021/08/06 00:33:22;;;;;;;3.23;1.10;;;;;;;16.03;98.86;155478.44;5048542;28;20811;-75
2021/08/06 00:35:58;;;;;;;1.30;1.10;;;;;;;15.99;100.00;155468.06;5020982;28;20446;-75
2021/08/06 00:38:36;;;;;;;1.87;1.27;;;;;;;15.97;100.00;155462.81;5029206;28;20459;-75
2021/08/06 00:41:13;;;;;;;1.30;1.13;;;;;;;15.93;100.00;155452.44;5031043;28;20478;-76
2021/08/06 00:43:49;;;;;;;2.53;1.40;;;;;;;15.85;100.00;155432.94;5016328;28;20459;-76
2021/08/06 00:46:34;;;;;;;1.40;1.30;;;;;;;15.78;100.00;155416.03;5028499;28;20482;-76
2021/08/06 00:49:10;;;;;;;2.57;1.20;;;;;;;15.78;100.00;155416.03;5033461;28;20462;-76
2021/08/06 00:51:54;;;;;;;1.97;1.40;;;;;;;15.77;100.00;155413.47;5019428;28;20540;-76
2021/08/06 00:54:34;;;;;;;2.27;1.50;;;;;;;15.71;100.00;155396.53;5018464;28;20572;-76
2021/08/06 00:57:17;;;;;;;1.90;1.30;;;;;;;15.65;100.00;155382.22;5064942;28;20439;-76
2021/08/06 00:59:58;;;;;;;1.70;1.40;;;;;;;15.64;100.00;155379.66;5025246;28;20455;-76
2021/08/06 01:02:40;;;;;;;1.60;1.20;;;;;;;15.67;100.00;155387.41;5029470;28;20447;-76
2021/08/06 01:05:21;;;;;;;4.27;1.50;;;;;;;15.63;100.00;155377.03;5049428;28;20431;-76
2021/08/06 01:08:08;;;;;;;1.57;1.03;;;;;;;15.59;100.00;155366.66;5042004;28;20471;-76
2021/08/06 01:10:47;;;;;;;1.40;1.20;;;;;;;15.62;100.00;155374.41;5031341;28;20918;-75
2021/08/06 01:13:27;;;;;;;2.50;1.83;;;;;;;15.56;100.00;155357.56;5062574;28;20884;-76
2021/08/06 01:16:08;;;;;;;2.47;1.30;;;;;;;15.55;100.00;155356.25;5024414;28;20536;-76
2021/08/06 01:18:53;;;;;;;1.57;1.17;;;;;;;15.52;100.00;155347.13;5034092;28;20458;-76
2021/08/06 01:21:32;;;;;;;1.50;1.30;;;;;;;15.54;100.00;155353.63;5028153;28;20430;-76
2021/08/06 01:24:10;;;;;;;1.50;1.37;;;;;;;15.56;100.00;155358.84;5051304;28;20808;-76
2021/08/06 01:26:47;;;;;;;3.50;1.90;;;;;;;15.50;100.00;155341.94;5019961;28;20471;-76
2021/08/06 01:29:25;;;;;;;1.33;1.20;;;;;;;15.47;100.00;155334.13;5000806;28;20957;-75
2021/08/06 01:32:02;;;;;;;3.17;1.73;;;;;;;15.47;100.00;155335.44;5028231;28;20463;-76
2021/08/06 01:34:39;;;;;;;1.50;1.20;;;;;;;15.53;100.00;155351.06;5044759;28;20525;-76
2021/08/06 01:37:17;;;;;;;1.80;1.30;;;;;;;15.51;100.00;155345.88;5032166;28;20438;-76
2021/08/06 01:39:56;;;;;;;2.33;1.40;;;;;;;15.54;99.86;155353.63;5038037;28;20442;-76
2021/08/06 01:42:39;;;;;;;2.13;1.50;;;;;;;15.58;100.00;155362.75;5011893;28;20893;-76
2021/08/06 01:45:19;;;;;;;1.80;1.23;;;;;;;15.59;99.27;155366.66;5023552;28;20440;-76
2021/08/06 01:47:55;;;;;;;2.57;1.50;;;;;;;15.64;100.00;155379.66;5037227;28;20505;-76
2021/08/06 01:50:44;;;;;;;2.17;1.40;;;;;;;15.63;100.00;155377.03;5019738;28;20931;-76
2021/08/06 01:53:26;;;;;;;3.60;1.67;;;;;;;15.60;98.47;155369.22;5028577;28;20461;-76
2021/08/06 01:56:11;;;;;;;3.00;1.50;;;;;;;15.62;100.00;155374.41;5043139;28;20442;-76
2021/08/06 01:58:58;;;;;;;2.53;1.37;;;;;;;15.69;98.59;155392.66;5026485;28;20451;-76
2021/08/06 02:01:44;;;;;;;3.13;1.60;;;;;;;15.70;99.25;155395.22;5018640;28;20446;-75
2021/08/06 02:04:25;;;;;;;1.80;1.70;;;;;;;15.70;98.68;155393.97;5029982;28;20446;-76
2021/08/06 02:07:22;;;;;;;2.43;1.10;;;;;;;15.67;97.41;155386.16;5052375;28;20455;-75
2021/08/06 02:10:04;;;;;;;2.07;1.50;;;;;;;15.68;98.03;155390.03;5048270;28;20446;-76
2021/08/06 02:12:46;;;;;;;1.93;1.50;;;;;;;15.75;97.94;155408.22;5029693;28;20459;-76
2021/08/06 02:15:24;;;;;;;2.80;1.90;;;;;;;15.78;97.70;155416.03;5005873;28;20447;-76
2021/08/06 02:18:02;;;;;;;2.23;2.03;;;;;;;15.78;98.07;155416.03;5029001;28;20450;-76
2021/08/06 02:20:52;;;;;;;2.10;1.60;;;;;;;15.80;97.01;155421.25;5049708;28;20902;-76
2021/08/06 02:23:32;;;;;;;1.70;1.60;;;;;;;15.82;97.32;155426.44;5034050;28;20478;-76
2021/08/06 02:26:08;;;;;;;1.67;1.40;;;;;;;15.83;97.34;155429.03;5048411;28;20447;-76
2021/08/06 02:28:45;;;;;;;2.77;1.77;;;;;;;15.83;97.32;155429.03;5047820;28;20465;-76
2021/08/06 02:31:23;;;;;;;2.80;1.53;;;;;;;15.90;98.08;155445.94;5011513;28;20433;-76
2021/08/06 02:34:02;;;;;;;2.40;1.70;;;;;;;15.86;97.27;155435.50;5026572;28;20455;-76
2021/08/06 02:36:38;;;;;;;2.77;1.43;;;;;;;15.88;96.88;155439.44;5050674;28;20806;-76
2021/08/06 02:39:16;;;;;;;2.10;1.80;;;;;;;15.90;97.26;155444.63;5050923;28;20451;-76
2021/08/06 02:41:52;;;;;;;2.00;1.63;;;;;;;15.88;96.55;155439.44;5050909;28;20446;-76
2021/08/06 02:44:28;;;;;;;1.40;1.30;;;;;;;15.90;95.75;155444.63;5058315;28;20458;-76
2021/08/06 02:47:05;;;;;;;2.10;1.90;;;;;;;15.93;95.47;155452.44;5066889;28;20482;-76
2021/08/06 02:49:42;;;;;;;1.87;1.60;;;;;;;15.93;96.09;155453.75;5028099;28;20451;-76
2021/08/06 02:52:17;;;;;;;2.73;1.80;;;;;;;15.94;96.99;155455.06;5034181;28;20950;-75
2021/08/06 02:54:53;;;;;;;1.90;1.70;;;;;;;15.97;96.29;155462.81;5050387;28;20490;-76
2021/08/06 02:57:28;;;;;;;2.20;1.70;;;;;;;16.00;97.23;155471.94;5036013;28;20443;-75
2021/08/06 03:00:06;;;;;;;2.37;2.00;;;;;;;16.00;95.64;155471.94;5032394;28;20455;-76
2021/08/06 03:02:45;;;;;;;5.00;1.60;;;;;;;15.98;94.02;155465.44;5047076;28;20447;-76
2021/08/06 03:05:20;;;;;;;2.60;1.53;;;;;;;16.01;95.36;155474.56;5064678;28;20806;-76
2021/08/06 03:07:56;;;;;;;2.00;1.80;;;;;;;16.00;94.86;155470.63;5032515;28;20484;-76
2021/08/06 03:10:34;;;;;;;1.93;1.73;;;;;;;16.01;95.01;155473.25;5002749;28;21038;-76
2021/08/06 03:13:09;;;;;;;1.80;1.67;;;;;;;16.03;95.73;155479.75;5063551;28;20442;-76
2021/08/06 03:15:46;;;;;;;3.40;2.17;;;;;;;16.02;95.53;155477.13;5051609;28;20447;-76
2021/08/06 03:18:23;;;;;;;1.90;1.70;;;;;;;15.96;94.96;155461.56;5029188;28;20799;-76
2021/08/06 03:20:59;;;;;;;2.07;1.63;;;;;;;15.99;95.68;155468.06;5029451;28;20452;-76
2021/08/06 03:23:38;;;;;;;2.27;2.07;;;;;;;15.94;94.83;155455.06;5035654;28;20513;-76
2021/08/06 03:26:14;;;;;;;2.10;1.90;;;;;;;15.96;95.22;155461.56;5025728;28;20447;-76
2021/08/06 03:28:51;;;;;;;2.20;2.00;;;;;;;15.99;96.59;155469.31;5044544;28;20444;-76
2021/08/06 03:31:28;;;;;;;2.53;1.70;;;;;;;15.98;94.26;155466.75;5018501;28;20447;-76
2021/08/06 03:34:05;;;;;;;2.53;1.40;;;;;;;16.00;95.85;155470.63;5066669;28;20462;-75
2021/08/06 03:36:41;;;;;;;2.40;1.97;;;;;;;15.98;96.81;155465.44;5050749;28;20446;-75
2021/08/06 03:39:17;;;;;;;2.00;1.90;;;;;;;15.97;95.71;155464.13;5040491;28;20809;-76
2021/08/06 03:41:52;;;;;;;2.00;1.40;;;;;;;15.99;96.40;155468.06;5033079;28;20452;-73
2021/08/06 03:44:28;;;;;;;1.97;1.77;;;;;;;15.96;95.21;155460.25;5028585;28;20451;-75
2021/08/06 03:47:04;;;;;;;2.20;1.77;;;;;;;15.97;95.18;155462.81;5023808;28;20558;-75
2021/08/06 03:49:41;;;;;;;2.20;2.00;;;;;;;15.94;95.31;155456.31;5033375;28;20448;-75
2021/08/06 03:52:17;;;;;;;2.60;1.93;;;;;;;15.92;95.24;155449.81;5019727;28;20962;-74
2021/08/06 03:54:52;;;;;;;2.10;1.90;;;;;;;15.87;95.11;155438.13;5045039;28;20442;-75
2021/08/06 03:57:28;;;;;;;2.60;2.00;;;;;;;15.86;94.44;155435.50;5020582;28;20465;-75
2021/08/06 04:00:05;;;;;;;3.03;2.10;;;;;;;15.86;95.55;155434.25;5036650;28;20542;-75
2021/08/06 04:02:52;;;;;;;2.93;2.03;;;;;;;15.91;94.35;155447.25;5036070;28;20463;-75
2021/08/06 04:05:31;;;;;;;4.57;1.90;;;;;;;15.89;95.29;155442.00;5005495;28;20994;-75
2021/08/06 04:08:09;;;;;;;3.17;2.00;;;;;;;15.84;94.31;155431.63;5016054;28;20479;-75
2021/08/06 04:10:48;;;;;;;3.83;2.60;;;;;;;15.92;95.58;155451.13;5013254;28;20452;-75
2021/08/06 04:13:24;;;;;;;2.40;2.17;;;;;;;15.92;94.90;155451.13;5037310;28;20857;-75
2021/08/06 04:15:59;;;;;;;2.40;1.97;;;;;;;15.93;93.32;155452.44;5006561;28;20436;-75
2021/08/06 04:18:35;;;;;;;2.60;2.00;;;;;;;15.93;93.73;155452.44;5038100;28;20443;-75
2021/08/06 04:21:12;;;;;;;2.33;2.13;;;;;;;15.93;94.54;155452.44;5048379;28;20525;-75
2021/08/06 04:23:47;;;;;;;2.83;2.43;;;;;;;15.90;94.99;155444.63;5022547;28;20498;-75
2021/08/06 04:26:23;;;;;;;2.67;2.20;;;;;;;15.89;97.15;155442.00;5033400;28;20454;-75
2021/08/06 04:28:58;;;;;;;2.20;2.00;;;;;;;15.89;95.62;155442.00;5021039;28;20479;-75
2021/08/06 04:31:34;;;;;;;3.60;1.70;;;;;;;15.83;97.52;155429.03;5018687;28;20867;-75
2021/08/06 04:34:10;;;;;;;2.17;1.97;;;;;;;15.86;97.42;155434.25;5040573;28;20495;-75
2021/08/06 04:36:48;;;;;;;2.37;2.10;;;;;;;15.81;97.75;155423.81;5046121;28;20478;-75
2021/08/06 04:39:23;;;;;;;2.60;2.20;;;;;;;15.77;98.76;155413.47;5033821;28;20446;-75
2021/08/06 04:41:59;;;;;;;2.60;1.80;;;;;;;15.78;99.40;155416.03;5025642;28;20443;-75
2021/08/06 04:44:36;;;;;;;2.70;2.47;;;;;;;15.82;99.74;155426.44;5043304;28;20461;-75
2021/08/06 04:47:12;;;;;;;2.30;2.10;;;;;;;15.81;100.00;155423.81;5016906;28;20490;-74
2021/08/06 04:49:47;;;;;;;2.53;2.33;;;;;;;15.75;100.00;155408.22;5026392;28;20486;-74
2021/08/06 04:52:24;;;;;;;4.67;2.30;;;;;;;15.81;100.00;155422.53;5061737;28;20729;-76
2021/08/06 04:55:00;;;;;;;4.27;2.07;;;;;;;15.73;100.00;155403.03;5049553;28;20448;-75
2021/08/06 04:57:36;;;;;;;3.10;2.20;;;;;;;15.76;100.00;155410.84;5033855;28;20989;-75
2021/08/06 05:00:13;;;;;;;3.80;2.10;;;;;;;15.81;100.00;155423.81;5014887;28;20454;-75
2021/08/06 05:02:48;;;;;;;2.60;2.23;;;;;;;15.74;100.00;155404.34;5027424;28;20442;-75
2021/08/06 05:05:24;;;;;;;2.50;2.30;;;;;;;15.70;100.00;155393.97;5028378;28;20445;-75
2021/08/06 05:08:02;;;;;;;2.30;2.10;;;;;;;15.66;100.00;155384.84;5010501;28;20491;-75
2021/08/06 05:10:37;;;;;;;2.40;2.20;;;;;;;15.72;100.00;155399.16;5029495;28;20526;-75
2021/08/06 05:13:13;;;;;;;3.00;2.50;;;;;;;15.64;100.00;155379.66;5030239;28;20450;-75
2021/08/06 05:15:50;;;;;;;3.00;2.50;;;;;;;15.63;100.00;155377.03;5010478;28;21033;-76
2021/08/06 05:18:26;;;;;;;3.70;2.53;;;;;;;15.56;100.00;155358.84;5012457;28;20447;-75
2021/08/06 05:21:02;;;;;;;2.80;2.50;;;;;;;15.53;100.00;155351.06;5034195;28;20451;-75
2021/08/06 05:23:39;;;;;;;4.43;2.70;;;;;;;15.50;100.00;155343.25;5007723;28;20866;-75
2021/08/06 05:26:14;;;;;;;2.87;2.60;;;;;;;15.45;100.00;155330.19;5019087;28;20541;-75
2021/08/06 05:28:50;;;;;;;3.10;2.40;;;;;;;15.43;100.00;155325.00;5022370;28;20483;-75
2021/08/06 05:31:26;;;;;;;3.03;2.50;;;;;;;15.41;100.00;155319.78;5033018;28;20791;-76
2021/08/06 05:34:02;;;;;;;3.80;2.93;;;;;;;15.40;100.00;155315.91;5036082;28;20459;-76
2021/08/06 05:36:38;;;;;;;3.10;2.43;;;;;;;15.47;100.00;155335.44;5029716;28;20510;-75
2021/08/06 05:39:15;;;;;;;4.47;2.60;;;;;;;15.34;100.00;155301.59;5040821;28;20446;-75
2021/08/06 05:41:51;;;;;;;3.60;3.30;;;;;;;15.40;100.00;155315.91;5038956;28;20445;-75
2021/08/06 05:44:28;;;;;;;3.20;2.90;;;;;;;15.39;100.00;155314.59;5004475;28;20449;-76
2021/08/06 05:47:04;;;;;;;3.30;2.77;;;;;;;15.35;100.00;155304.22;5017860;28;20459;-75
2021/08/06 05:49:40;;;;;;;5.10;2.90;;;;;;;15.30;100.00;155291.22;5019065;28;20430;-75
2021/08/06 05:52:16;;;;;;;3.57;2.90;;;;;;;15.38;100.00;155311.97;5017839;28;20457;-75
2021/08/06 05:54:55;;;;;;;3.20;2.90;;;;;;;15.37;100.00;155309.41;5033890;28;20442;-75
2021/08/06 05:57:31;;;;;;;3.67;3.13;;;;;;;15.43;100.00;155325.00;5035043;28;20910;-75
2021/08/06 06:00:11;;;;;;;2.97;2.70;;;;;;;15.51;100.00;155345.88;5018784;28;20454;-75
2021/08/06 06:02:59;;;;;;;2.90;2.60;;;;;;;15.53;100.00;155351.06;5033682;28;20494;-75
2021/08/06 06:05:55;;;;;;;3.40;2.80;;;;;;;15.56;100.00;155358.84;5046756;28;20760;-75
2021/08/06 06:08:31;;;;;;;3.20;2.40;;;;;;;15.65;100.00;155382.22;5025811;28;20481;-76
2021/08/06 06:11:09;;;;;;;4.10;3.10;;;;;;;15.70;100.00;155395.22;5032302;28;20450;-75
2021/08/06 06:13:44;;;;;;;3.60;2.70;;;;;;;15.74;100.00;155405.66;5038255;28;20454;-75
2021/08/06 06:16:20;;;;;;;4.40;2.63;;;;;;;15.82;100.00;155426.44;5019193;28;20446;-75
2021/08/06 06:18:56;;;;;;;2.93;2.63;;;;;;;15.83;100.00;155429.03;5029208;28;20638;-74
2021/08/06 06:21:32;;;;;;;3.87;2.90;;;;;;;15.94;100.00;155455.06;5039534;28;20438;-75
2021/08/06 06:24:08;;;;;;;3.30;3.00;;;;;;;16.01;100.00;155473.25;5051448;28;20470;-75
2021/08/06 06:26:44;;;;;;;3.67;2.70;;;;;;;16.14;100.00;155507.06;5020939;28;20491;-75
2021/08/06 06:29:20;;;;;;;4.00;3.10;;;;;;;16.27;100.00;155540.84;5008182;28;20462;-76
2021/08/06 06:31:56;;;;;;;3.00;2.70;;;;;;;16.48;100.00;155595.47;5023377;28;20447;-75
2021/08/06 06:34:31;;;;;;;3.20;2.90;;;;;;;16.66;100.00;155642.34;5027775;28;20460;-75
2021/08/06 06:37:07;;;;;;;3.67;2.40;;;;;;;16.89;100.00;155700.94;5042660;28;20442;-74
2021/08/06 06:39:44;;;;;;;3.43;3.13;;;;;;;17.12;100.00;155759.47;5052937;28;20526;-76
2021/08/06 06:42:21;;;;;;;2.67;2.47;;;;;;;17.25;100.00;155793.28;5024820;28;20824;-75
2021/08/06 06:44:57;;;;;;;5.73;2.77;;;;;;;17.34;100.00;155816.72;5013251;28;20444;-75
2021/08/06 06:47:37;;;;;;;3.73;2.23;;;;;;;17.47;100.00;155850.56;5016245;28;20947;-74
2021/08/06 06:50:14;;;;;;;3.10;2.80;;;;;;;17.53;100.00;155866.22;5050034;28;20475;-75
2021/08/06 06:52:51;;;;;;;2.87;2.57;;;;;;;17.60;100.00;155884.47;5038333;28;20454;-75
2021/08/06 06:55:27;;;;;;;3.80;3.10;;;;;;;18.27;99.91;156056.34;5043686;28;20440;-75
2021/08/06 06:58:06;;;;;;;2.63;2.43;;;;;;;19.15;96.91;156285.66;5047524;28;20447;-75
2021/08/06 07:00:41;;;;;;;2.43;2.23;;;;;;;19.84;91.92;156463.00;5032305;28;20515;-75
2021/08/06 07:03:20;;;;;;;2.77;2.07;;;;;;;20.46;87.10;156624.78;5020136;28;20459;-75
2021/08/06 07:05:56;;;;;;;4.03;1.97;;;;;;;21.27;85.95;156833.56;5030112;28;20465;-75
2021/08/06 07:08:33;;;;;;;1.80;1.40;;;;;;;21.40;84.00;156867.50;5031852;28;20873;-75
2021/08/06 07:11:08;;;;;;;2.50;1.80;;;;;;;21.15;83.20;156803.53;5039653;28;20442;-76
2021/08/06 07:13:47;;;;;;;1.90;1.70;;;;;;;20.81;83.76;156713.47;4997903;28;20456;-76
2021/08/06 07:16:23;;;;;;;3.17;2.87;;;;;;;20.24;85.28;156567.38;5028820;28;20854;-76
2021/08/06 07:19:00;;;;;;;1.80;1.70;;;;;;;20.02;87.34;156509.91;5067108;28;20448;-76
2021/08/06 07:21:36;;;;;;;1.80;1.60;;;;;;;19.66;89.78;156417.38;5043204;28;20556;-73
2021/08/06 07:24:12;;;;;;;1.60;1.47;;;;;;;19.54;89.21;156384.78;5016798;28;20448;-76
2021/08/06 07:26:48;;;;;;;3.33;1.63;;;;;;;19.31;91.20;156327.38;5031419;28;20458;-75
2021/08/06 07:29:26;;;;;;;2.73;1.80;;;;;;;19.19;92.57;156296.13;5029041;28;20970;-75
2021/08/06 07:32:01;;;;;;;3.43;1.77;;;;;;;19.10;92.34;156272.63;5022297;28;20443;-75
2021/08/06 07:34:37;;;;;;;2.17;1.63;;;;;;;19.05;92.89;156259.59;5006049;28;20803;-76
2021/08/06 07:37:13;;;;;;;2.00;1.60;;;;;;;19.06;92.67;156262.19;5022251;28;20861;-76
2021/08/06 07:39:50;;;;;;;2.50;1.67;;;;;;;19.03;94.01;156254.41;5027902;28;20448;-76
2021/08/06 07:42:26;;;;;;;3.83;1.73;;;;;;;19.04;93.62;156256.97;5023395;28;20439;-75
2021/08/06 07:45:04;;;;;;;1.80;1.70;;;;;;;18.90;91.77;156220.53;5021527;28;20439;-75
2021/08/06 07:47:43;;;;;;;1.97;1.60;;;;;;;18.91;93.45;156221.78;5047074;28;20545;-75
2021/08/06 07:50:20;;;;;;;2.37;2.13;;;;;;;18.95;93.07;156232.25;5033314;28;20443;-75
2021/08/06 07:52:55;;;;;;;2.30;1.77;;;;;;;18.97;94.32;156238.75;5026087;28;20953;-75
2021/08/06 07:55:33;;;;;;;2.03;1.80;;;;;;;18.92;92.95;156224.41;5028959;28;20530;-75
2021/08/06 07:58:08;;;;;;;2.40;2.03;;;;;;;18.90;95.49;156219.22;5024804;28;20447;-75
2021/08/06 08:00:46;;;;;;;1.63;1.50;;;;;;;18.78;95.70;156190.53;5033320;28;20989;-75
2021/08/06 08:03:22;;;;;;;2.87;2.37;;;;;;;18.68;97.67;156163.19;5032928;28;20467;-76
2021/08/06 08:05:58;;;;;;;2.87;2.33;;;;;;;18.54;99.92;156126.69;5015765;28;20420;-76
2021/08/06 08:08:34;;;;;;;2.90;1.63;;;;;;;18.32;99.71;156070.63;5015980;28;20570;-76
2021/08/06 08:11:13;;;;;;;3.33;1.13;;;;;;;17.99;99.31;155986.00;5016156;28;20436;-76
2021/08/06 08:13:48;;;;;;;3.57;1.40;;;;;;;17.76;100.00;155926.13;5065325;28;20447;-77
2021/08/06 08:16:25;;;;;;;2.20;1.40;;;;;;;17.47;98.36;155850.56;5030895;28;20439;-76
2021/08/06 08:19:01;;;;;;;1.77;0.90;;;;;;;17.49;100.00;155855.78;5011610;28;20937;-76
2021/08/06 08:21:37;;;;;;;2.23;1.13;;;;;;;17.44;100.00;155842.75;4996113;28;20437;-75
2021/08/06 08:24:13;;;;;;;1.20;0.90;;;;;;;17.44;100.00;155842.75;5054219;28;20480;-74
2021/08/06 08:26:49;;;;;;;1.33;1.00;;;;;;;17.53;100.00;155866.22;5010974;28;20448;-74
2021/08/06 08:29:25;;;;;;;1.90;0.80;;;;;;;17.65;100.00;155897.47;5013836;28;20811;-75
2021/08/06 08:32:01;;;;;;;2.60;1.20;;;;;;;17.73;100.00;155918.31;5016252;28;20482;-75
2021/08/06 08:34:37;;;;;;;3.43;1.97;;;;;;;17.88;100.00;155957.34;5024665;28;20935;-75
2021/08/06 08:37:14;;;;;;;1.23;0.90;;;;;;;18.04;100.00;155999.03;5046611;28;20456;-75
2021/08/06 08:39:50;;;;;;;1.83;1.10;;;;;;;18.16;100.00;156030.25;5024872;28;20471;-74
2021/08/06 08:42:26;;;;;;;2.23;1.20;;;;;;;18.27;100.00;156056.34;5014057;28;20452;-75
2021/08/06 08:45:04;;;;;;;1.40;1.10;;;;;;;18.33;98.57;156071.94;5032120;28;20880;-75
2021/08/06 08:47:44;;;;;;;1.87;1.00;;;;;;;18.50;97.79;156116.31;5011872;28;20511;-74
2021/08/06 08:50:20;;;;;;;1.60;1.00;;;;;;;18.66;99.96;156159.31;5030239;28;20455;-75
2021/08/06 08:52:57;;;;;;;1.60;1.17;;;;;;;18.82;96.76;156200.94;5010445;28;20459;-75
2021/08/06 08:55:33;;;;;;;1.37;1.07;;;;;;;18.96;97.01;156236.13;5016917;28;20479;-75
2021/08/06 08:58:12;;;;;;;1.77;1.07;;;;;;;19.35;97.51;156337.78;5012280;28;20455;-74
2021/08/06 09:00:49;;;;;;;1.57;1.00;;;;;;;19.97;95.00;156496.88;5030420;28;20436;-74
2021/08/06 09:03:40;;;;;;;1.80;1.03;;;;;;;20.37;91.51;156601.28;5045486;28;20817;-74
2021/08/06 09:06:39;;;;;;;2.57;1.20;;;;;;;20.53;93.94;156641.72;5041463;28;20460;-74
2021/08/06 09:09:20;;;;;;;1.03;0.80;;;;;;;20.44;90.34;156619.53;5034063;28;20510;-74
2021/08/06 09:12:15;;;;;;;1.30;0.87;;;;;;;20.63;90.05;156669.09;5040660;28;20452;-75
2021/08/06 09:15:11;;;;;;;2.27;1.30;;;;;;;20.29;87.97;156580.41;5041283;28;20470;-75
2021/08/06 09:17:48;;;;;;;2.00;1.23;;;;;;;20.36;89.25;156598.66;5044076;28;20451;-75
2021/08/06 09:20:24;;;;;;;2.00;0.90;;;;;;;20.36;88.82;156597.38;5029037;28;20837;-75
2021/08/06 09:23:00;;;;;;;1.37;0.90;;;;;;;20.46;87.93;156623.47;5033149;28;20498;-75
2021/08/06 09:25:36;;;;;;;1.63;0.90;;;;;;;20.67;87.05;156678.25;5032762;28;20452;-76
2021/08/06 09:28:11;;;;;;;1.23;0.90;;;;;;;20.46;84.00;156623.47;5039066;28;20571;-74
2021/08/06 09:30:49;;;;;;;1.60;1.00;;;;;;;20.33;87.83;156590.81;5030796;28;20521;-74
2021/08/06 09:33:32;;;;;;;2.80;0.83;;;;;;;20.19;85.20;156554.28;5033533;28;20439;-75
2021/08/06 09:36:12;;;;;;;1.20;0.83;;;;;;;20.26;85.94;156572.56;5039311;28;21125;-75
2021/08/06 09:38:48;;;;;;;1.27;1.10;;;;;;;20.34;85.74;156593.44;5032117;28;20952;-75
2021/08/06 09:41:39;;;;;;;1.30;1.10;;;;;;;20.47;85.24;156627.34;5020839;28;20888;-75
2021/08/06 09:44:16;;;;;;;1.40;1.00;;;;;;;20.34;84.00;156593.44;5051573;28;20726;-75
2021/08/06 09:46:52;;;;;;;1.27;0.97;;;;;;;20.28;83.92;156576.50;5032472;28;20943;-75
2021/08/06 09:49:29;;;;;;;1.60;1.20;;;;;;;20.23;83.17;156564.69;5023854;28;20486;-75
2021/08/06 09:52:06;;;;;;;3.40;1.27;;;;;;;20.33;85.83;156590.81;5032228;28;20479;-75
2021/08/06 09:54:49;;;;;;;1.40;1.00;;;;;;;20.56;86.96;156649.53;5042607;28;20423;-75
2021/08/06 09:57:24;;;;;;;1.93;1.40;;;;;;;21.02;87.19;156768.28;5024030;28;20444;-75
2021/08/06 10:00:01;;;;;;;1.97;1.13;;;;;;;21.21;82.03;156819.22;5039852;28;20438;-75
2021/08/06 10:02:41;;;;;;;2.23;1.13;;;;;;;21.37;79.75;156859.66;5029228;28;20549;-75
2021/08/06 10:05:18;;;;;;;1.60;1.33;;;;;;;21.49;77.96;156889.69;5047494;28;21081;-77
2021/08/06 10:07:57;;;;;;;1.33;1.20;;;;;;;21.64;77.96;156930.16;5032023;28;20858;-77
2021/08/06 10:10:35;;;;;;;1.50;1.00;;;;;;;21.86;74.64;156986.38;5036207;28;20831;-77
2021/08/06 10:13:10;;;;;;;2.73;1.43;;;;;;;21.94;74.79;157005.94;5042394;28;20444;-77
2021/08/06 10:15:46;;;;;;;1.23;1.10;;;;;;;22.12;73.58;157052.94;5023962;28;20454;-77
2021/08/06 10:18:22;;;;;;;4.73;1.20;;;;;;;22.21;71.57;157076.47;5053149;28;20442;-77
2021/08/06 10:20:58;;;;;;;1.40;1.20;;;;;;;22.27;73.73;157092.13;5053430;28;20443;-76
2021/08/06 10:23:35;;;;;;;1.80;1.53;;;;;;;22.44;71.09;157137.84;5033958;28;21073;-76
2021/08/06 10:26:11;;;;;;;1.50;1.30;;;;;;;22.55;68.94;157165.28;5035251;28;20446;-76
2021/08/06 10:28:46;;;;;;;1.60;1.50;;;;;;;22.50;67.07;157152.22;5046410;28;20446;-76
2021/08/06 10:31:23;;;;;;;1.43;1.33;;;;;;;22.14;71.58;157059.47;5038864;28;20444;-76
2021/08/06 10:34:03;;;;;;;1.40;1.20;;;;;;;22.14;69.45;157059.47;5045880;28;20996;-77
2021/08/06 10:36:41;;;;;;;2.30;2.10;;;;;;;22.29;68.58;157098.63;5050453;28;20473;-77
2021/08/06 10:39:44;;;;;;;3.83;1.47;;;;;;;22.24;68.84;157084.31;5065322;28;20474;-77
2021/08/06 10:42:30;;;;;;;1.17;1.07;;;;;;;22.25;68.47;157086.91;5033075;28;20448;-77
2021/08/06 10:45:06;;;;;;;1.43;1.30;;;;;;;21.98;66.62;157017.69;5033277;28;20861;-77
2021/08/06 10:47:52;;;;;;;2.33;1.53;;;;;;;21.90;68.35;156995.47;5066528;28;20455;-76
2021/08/06 10:50:27;;;;;;;2.10;1.40;;;;;;;21.89;68.51;156992.88;5040376;28;21012;-77
2021/08/06 10:53:17;;;;;;;2.57;1.70;;;;;;;21.94;68.73;157005.94;5032129;28;20455;-77
2021/08/06 10:56:25;;;;;;;2.93;1.83;;;;;;;21.84;69.26;156982.38;5066893;28;20444;-77
2021/08/06 10:59:03;;;;;;;1.27;1.17;;;;;;;21.91;69.55;156999.41;5025229;28;20447;-76
2021/08/06 11:01:40;;;;;;;1.57;1.07;;;;;;;21.81;71.02;156973.25;5033424;28;20416;-76
2021/08/06 11:04:46;;;;;;;1.83;1.00;;;;;;;21.71;69.18;156947.16;5033266;28;20570;-77
2021/08/06 11:07:31;;;;;;;2.47;1.20;;;;;;;21.59;67.67;156917.13;5018120;28;20432;-76
2021/08/06 11:10:07;;;;;;;1.40;1.30;;;;;;;21.58;69.04;156914.47;5014628;28;20453;-76
2021/08/06 11:12:45;;;;;;;2.10;1.20;;;;;;;21.37;67.64;156858.34;5014623;28;20527;-76
2021/08/06 11:15:21;;;;;;;1.60;1.17;;;;;;;21.23;71.59;156823.16;5014601;28;20836;-76
2021/08/06 11:17:56;;;;;;;1.30;1.10;;;;;;;21.21;69.26;156817.91;5033379;28;20774;-76
2021/08/06 11:20:32;;;;;;;3.00;2.00;;;;;;;21.19;69.88;156812.69;5063108;28;20450;-76
2021/08/06 11:23:09;;;;;;;1.73;1.13;;;;;;;21.15;72.69;156802.25;5033772;28;20558;-76
2021/08/06 11:25:47;;;;;;;2.00;1.70;;;;;;;21.22;69.78;156820.53;5014247;28;20417;-75
2021/08/06 11:28:26;;;;;;;2.13;1.67;;;;;;;21.43;66.74;156875.34;5046536;28;20484;-76
2021/08/06 11:31:16;;;;;;;1.60;1.10;;;;;;;21.64;65.38;156930.16;5029610;28;20974;-76
2021/08/06 11:33:59;;;;;;;1.80;1.30;;;;;;;21.86;66.34;156986.38;5034485;28;20440;-75
2021/08/06 11:36:36;;;;;;;3.37;2.00;;;;;;;21.88;68.02;156991.56;5050578;28;20844;-75
2021/08/06 11:39:12;;;;;;;1.60;1.20;;;;;;;21.96;65.64;157012.47;5037051;28;21098;-75
2021/08/06 11:41:49;;;;;;;2.63;1.50;;;;;;;21.89;67.34;156994.19;5032600;28;20534;-75
2021/08/06 11:44:26;;;;;;;2.10;0.93;;;;;;;21.95;68.54;157009.84;5032333;28;20842;-75
2021/08/06 11:47:01;;;;;;;1.30;1.00;;;;;;;22.03;67.76;157030.72;5049787;28;20486;-75
2021/08/06 11:49:37;;;;;;;2.20;1.70;;;;;;;22.16;65.06;157063.41;5037921;28;20582;-75
2021/08/06 11:52:12;;;;;;;1.27;1.17;;;;;;;22.12;66.77;157052.94;5032483;28;20448;-75
2021/08/06 11:54:53;;;;;;;2.20;1.30;;;;;;;22.01;66.01;157025.53;5044795;28;20470;-75
2021/08/06 11:57:49;;;;;;;2.20;1.23;;;;;;;21.95;68.42;157008.56;5035978;28;20982;-75
2021/08/06 12:00:28;;;;;;;2.37;2.17;;;;;;;21.74;68.23;156956.25;5040528;28;20435;-75
2021/08/06 12:03:11;;;;;;;1.63;1.20;;;;;;;21.64;70.36;156930.16;5043858;28;20460;-75
2021/08/06 12:05:49;;;;;;;1.70;1.10;;;;;;;21.47;68.42;156884.50;5034901;28;20506;-75
2021/08/06 12:08:28;;;;;;;1.70;1.50;;;;;;;21.27;67.38;156833.56;5052343;28;20462;-75
2021/08/06 12:11:12;;;;;;;2.67;2.47;;;;;;;21.38;68.94;156862.28;5057296;28;21007;-75
2021/08/06 12:13:50;;;;;;;2.47;1.40;;;;;;;21.39;69.21;156864.91;5055777;28;20479;-75